Time,TemperatureF,DewpointF,PressureIn,WindDirection,WindDirectionDegrees,WindSpeedMPH,WindSpeedGustMPH,Humidity,HourlyPrecipIn,Conditions,Clouds,dailyrainin,SoftwareType,DateUTC
2013-01-23 00:02:00,13.0,0.0,30.37,West,270,3.0,3.0,55,0.00,,,0.00,,2013-01-23 06:02:00,
2013-01-23 00:12:00,13.0,0.0,30.37,West,270,3.0,3.0,55,0.00,,,0.00,,2013-01-23 06:12:00,
2013-01-23 00:22:00,13.0,0.0,30.37,West,270,3.0,3.0,55,0.00,,,0.00,,2013-01-23 06:22:00,
2013-01-23 00:32:00,13.0,1.0,30.36,West,270,0.0,0.0,58,0.00,,,0.00,,2013-01-23 06:32:00,
2013-01-23 00:42:00,13.0,1.0,30.36,West,270,0.0,0.0,58,0.00,,,0.00,,2013-01-23 06:42:00,
2013-01-23 00:52:00,13.0,1.0,30.36,West,270,0.0,0.0,58,0.00,,,0.00,,2013-01-23 06:52:00,
2013-01-23 01:02:00,13.0,1.0,30.36,West,270,0.0,0.0,58,0.00,,,0.00,,2013-01-23 07:02:00,
2013-01-23 01:12:00,13.0,1.0,30.36,West,270,0.0,0.0,58,0.00,,,0.00,,2013-01-23 07:12:00,
2013-01-23 01:22:00,13.0,1.0,30.36,West,270,0.0,0.0,58,0.00,,,0.00,,2013-01-23 07:22:00,
2013-01-23 01:33:00,14.0,1.0,30.34,SW,230,5.0,5.0,55,0.00,,,0.00,,2013-01-23 07:33:00,
2013-01-23 01:42:00,14.0,1.0,30.34,SW,230,5.0,5.0,55,0.00,,,0.00,,2013-01-23 07:42:00,
2013-01-23 01:52:00,14.0,1.0,30.34,SW,230,5.0,5.0,55,0.00,,,0.00,,2013-01-23 07:52:00,
2013-01-23 02:02:00,14.0,1.0,30.34,SW,230,5.0,5.0,55,0.00,,,0.00,,2013-01-23 08:02:00,
2013-01-23 02:13:00,14.0,1.0,30.34,SW,230,5.0,5.0,55,0.00,,,0.00,,2013-01-23 08:13:00,
2013-01-23 02:22:00,14.0,1.0,30.34,SW,230,5.0,5.0,55,0.00,,,0.00,,2013-01-23 08:22:00,
2013-01-23 02:33:00,14.0,1.0,30.34,WSW,240,6.0,6.0,55,0.00,,,0.00,,2013-01-23 08:33:00,
2013-01-23 02:42:00,14.0,1.0,30.34,WSW,240,6.0,6.0,55,0.00,,,0.00,,2013-01-23 08:42:00,
2013-01-23 02:52:00,14.0,1.0,30.34,WSW,240,6.0,6.0,55,0.00,,,0.00,,2013-01-23 08:52:00,
2013-01-23 03:03:00,14.0,1.0,30.34,WSW,240,6.0,6.0,55,0.00,,,0.00,,2013-01-23 09:03:00,
2013-01-23 03:12:00,14.0,1.0,30.34,WSW,240,6.0,6.0,55,0.00,,,0.00,,2013-01-23 09:12:00,
2013-01-23 03:22:00,14.0,1.0,30.34,WSW,240,6.0,6.0,55,0.00,,,0.00,,2013-01-23 09:22:00,
2013-01-23 03:32:00,14.0,1.0,30.33,SW,220,6.0,6.0,55,0.00,,,0.00,,2013-01-23 09:32:00,
2013-01-23 03:43:00,14.0,1.0,30.33,SW,220,6.0,6.0,55,0.00,,,0.00,,2013-01-23 09:43:00,
2013-01-23 03:52:00,14.0,1.0,30.33,SW,220,6.0,6.0,55,0.00,,,0.00,,2013-01-23 09:52:00,
2013-01-23 04:03:00,14.0,1.0,30.33,SW,220,6.0,6.0,55,0.00,,,0.00,,2013-01-23 10:03:00,
2013-01-23 04:12:00,14.0,1.0,30.33,SW,220,6.0,6.0,55,0.00,,,0.00,,2013-01-23 10:12:00,
2013-01-23 04:22:00,14.0,1.0,30.33,SW,220,6.0,6.0,55,0.00,,,0.00,,2013-01-23 10:22:00,
2013-01-23 04:33:00,14.0,1.0,30.32,WSW,250,5.0,5.0,55,0.00,,,0.00,,2013-01-23 10:33:00,
2013-01-23 04:42:00,14.0,1.0,30.32,WSW,250,5.0,5.0,55,0.00,,,0.00,,2013-01-23 10:42:00,
2013-01-23 04:52:00,14.0,1.0,30.32,WSW,250,5.0,5.0,55,0.00,,,0.00,,2013-01-23 10:52:00,
2013-01-23 05:02:00,14.0,1.0,30.32,WSW,250,5.0,5.0,55,0.00,,,0.00,,2013-01-23 11:02:00,
2013-01-23 05:12:00,14.0,1.0,30.32,WSW,250,5.0,5.0,55,0.00,,,0.00,,2013-01-23 11:12:00,
2013-01-23 05:22:00,14.0,1.0,30.32,WSW,250,5.0,5.0,55,0.00,,,0.00,,2013-01-23 11:22:00,
2013-01-23 05:33:00,15.0,1.0,30.30,SW,220,5.0,5.0,53,0.00,,,0.00,,2013-01-23 11:33:00,
2013-01-23 05:43:00,15.0,1.0,30.30,SW,220,5.0,5.0,53,0.00,,,0.00,,2013-01-23 11:43:00,
2013-01-23 05:52:00,15.0,1.0,30.30,SW,220,5.0,5.0,53,0.00,,,0.00,,2013-01-23 11:52:00,
2013-01-23 06:03:00,15.0,1.0,30.30,SW,220,5.0,5.0,53,0.00,,,0.00,,2013-01-23 12:03:00,
2013-01-23 06:12:00,15.0,1.0,30.30,SW,220,5.0,5.0,53,0.00,,,0.00,,2013-01-23 12:12:00,
2013-01-23 06:22:00,15.0,1.0,30.30,SW,220,5.0,5.0,53,0.00,,,0.00,,2013-01-23 12:22:00,
2013-01-23 06:33:00,15.0,2.0,30.30,SSW,210,6.0,6.0,55,0.00,,,0.00,,2013-01-23 12:33:00,
2013-01-23 06:43:00,15.0,2.0,30.30,SSW,210,6.0,6.0,55,0.00,,,0.00,,2013-01-23 12:43:00,
2013-01-23 06:52:00,15.0,2.0,30.30,SSW,210,6.0,6.0,55,0.00,,,0.00,,2013-01-23 12:52:00,
2013-01-23 07:03:00,15.0,2.0,30.30,SSW,210,6.0,6.0,55,0.00,,,0.00,,2013-01-23 13:03:00,
2013-01-23 07:12:00,15.0,2.0,30.30,SSW,210,6.0,6.0,55,0.00,,,0.00,,2013-01-23 13:12:00,
2013-01-23 07:23:00,15.0,2.0,30.30,SSW,210,6.0,6.0,55,0.00,,,0.00,,2013-01-23 13:23:00,
2013-01-23 07:33:00,15.0,2.0,30.29,SSW,200,7.0,7.0,55,0.00,,,0.00,,2013-01-23 13:33:00,
2013-01-23 07:42:00,15.0,2.0,30.29,SSW,200,7.0,7.0,55,0.00,,,0.00,,2013-01-23 13:42:00,
2013-01-23 07:52:00,15.0,2.0,30.29,SSW,200,7.0,7.0,55,0.00,,,0.00,,2013-01-23 13:52:00,
2013-01-23 08:03:00,15.0,2.0,30.29,SSW,200,7.0,7.0,55,0.00,,,0.00,,2013-01-23 14:03:00,
2013-01-23 08:12:00,15.0,2.0,30.29,SSW,200,7.0,7.0,55,0.00,,,0.00,,2013-01-23 14:12:00,
2013-01-23 08:23:00,15.0,2.0,30.29,SSW,200,7.0,7.0,55,0.00,,,0.00,,2013-01-23 14:23:00,
2013-01-23 08:33:00,16.0,2.0,30.26,SSW,210,9.0,9.0,53,0.00,,,0.00,,2013-01-23 14:33:00,
2013-01-23 08:42:00,16.0,2.0,30.26,SSW,210,9.0,9.0,53,0.00,,,0.00,,2013-01-23 14:42:00,
2013-01-23 08:53:00,16.0,2.0,30.26,SSW,210,9.0,9.0,53,0.00,,,0.00,,2013-01-23 14:53:00,
2013-01-23 09:03:00,16.0,2.0,30.26,SSW,210,9.0,9.0,53,0.00,,,0.00,,2013-01-23 15:03:00,
2013-01-23 09:12:00,16.0,2.0,30.26,SSW,210,9.0,9.0,53,0.00,,,0.00,,2013-01-23 15:12:00,
2013-01-23 09:22:00,16.0,2.0,30.26,SSW,210,9.0,9.0,53,0.00,,,0.00,,2013-01-23 15:22:00,
2013-01-23 09:33:00,17.0,4.0,30.27,South,190,9.0,9.0,55,0.00,,,0.00,,2013-01-23 15:33:00,
2013-01-23 09:43:00,17.0,4.0,30.27,South,190,9.0,9.0,55,0.00,,,0.00,,2013-01-23 15:43:00,
2013-01-23 09:52:00,17.0,4.0,30.27,South,190,9.0,9.0,55,0.00,,,0.00,,2013-01-23 15:52:00,
2013-01-23 10:03:00,17.0,4.0,30.27,South,190,9.0,9.0,55,0.00,,,0.00,,2013-01-23 16:03:00,
2013-01-23 10:12:00,17.0,4.0,30.27,South,190,9.0,9.0,55,0.00,,,0.00,,2013-01-23 16:12:00,
2013-01-23 10:23:00,17.0,4.0,30.27,South,190,9.0,9.0,55,0.00,,,0.00,,2013-01-23 16:23:00,
2013-01-23 10:33:00,19.0,5.0,30.27,South,190,9.0,9.0,53,0.00,,,0.00,,2013-01-23 16:33:00,
2013-01-23 10:42:00,19.0,5.0,30.27,South,190,9.0,9.0,53,0.00,,,0.00,,2013-01-23 16:42:00,
2013-01-23 10:52:00,19.0,5.0,30.27,South,190,9.0,9.0,53,0.00,,,0.00,,2013-01-23 16:52:00,
2013-01-23 11:03:00,19.0,5.0,30.27,South,190,9.0,9.0,53,0.00,,,0.00,,2013-01-23 17:03:00,
2013-01-23 11:12:00,19.0,5.0,30.27,South,190,9.0,9.0,53,0.00,,,0.00,,2013-01-23 17:12:00,
2013-01-23 11:22:00,19.0,5.0,30.27,South,190,9.0,9.0,53,0.00,,,0.00,,2013-01-23 17:22:00,
2013-01-23 11:33:00,21.0,7.0,30.25,SSW,200,8.0,8.0,53,0.00,,,0.00,,2013-01-23 17:33:00,
2013-01-23 11:42:00,21.0,7.0,30.25,SSW,200,8.0,8.0,53,0.00,,,0.00,,2013-01-23 17:42:00,
2013-01-23 11:52:00,21.0,7.0,30.25,SSW,200,8.0,8.0,53,0.00,,,0.00,,2013-01-23 17:52:00,
2013-01-23 12:03:00,21.0,7.0,30.25,SSW,200,8.0,8.0,53,0.00,,,0.00,,2013-01-23 18:03:00,
2013-01-23 12:12:00,21.0,7.0,30.25,SSW,200,8.0,8.0,53,0.00,,,0.00,,2013-01-23 18:12:00,
2013-01-23 12:23:00,21.0,7.0,30.25,SSW,200,8.0,8.0,53,0.00,,,0.00,,2013-01-23 18:23:00,
2013-01-23 12:33:00,21.0,7.0,30.25,SSW,200,8.0,8.0,53,0.00,,,0.00,,2013-01-23 18:33:00,
2013-01-23 12:43:00,23.0,7.0,30.20,South,190,7.0,7.0,49,0.00,,,0.00,,2013-01-23 18:43:00,
2013-01-23 12:52:00,23.0,7.0,30.20,South,190,7.0,7.0,49,0.00,,,0.00,,2013-01-23 18:52:00,
2013-01-23 13:03:00,23.0,7.0,30.20,South,190,7.0,7.0,49,0.00,,,0.00,,2013-01-23 19:03:00,
2013-01-23 13:13:00,23.0,7.0,30.20,South,190,7.0,7.0,49,0.00,,,0.00,,2013-01-23 19:13:00,
2013-01-23 13:22:00,23.0,7.0,30.20,South,190,7.0,7.0,49,0.00,,,0.00,,2013-01-23 19:22:00,
2013-01-23 13:33:00,27.0,8.0,30.15,SW,230,8.0,8.0,44,0.00,,,0.00,,2013-01-23 19:33:00,
2013-01-23 13:43:00,27.0,8.0,30.15,SW,230,8.0,8.0,44,0.00,,,0.00,,2013-01-23 19:43:00,
2013-01-23 13:52:00,27.0,8.0,30.15,SW,230,8.0,8.0,44,0.00,,,0.00,,2013-01-23 19:52:00,
2013-01-23 14:03:00,27.0,8.0,30.15,SW,230,8.0,8.0,44,0.00,,,0.00,,2013-01-23 20:03:00,
2013-01-23 14:12:00,27.0,8.0,30.15,SW,230,8.0,8.0,44,0.00,,,0.00,,2013-01-23 20:12:00,
2013-01-23 14:23:00,27.0,8.0,30.15,SW,230,8.0,8.0,44,0.00,,,0.00,,2013-01-23 20:23:00,
2013-01-23 14:33:00,31.0,10.0,30.13,WSW,240,12.0,12.0,41,0.00,,,0.00,,2013-01-23 20:33:00,
2013-01-23 14:42:00,31.0,10.0,30.13,WSW,240,12.0,12.0,41,0.00,,,0.00,,2013-01-23 20:42:00,
2013-01-23 14:53:00,31.0,10.0,30.13,WSW,240,12.0,12.0,41,0.00,,,0.00,,2013-01-23 20:53:00,
2013-01-23 15:03:00,31.0,10.0,30.13,WSW,240,12.0,12.0,41,0.00,,,0.00,,2013-01-23 21:03:00,
2013-01-23 15:12:00,31.0,10.0,30.13,WSW,240,12.0,12.0,41,0.00,,,0.00,,2013-01-23 21:12:00,
2013-01-23 15:22:00,31.0,10.0,30.13,WSW,240,12.0,12.0,41,0.00,,,0.00,,2013-01-23 21:22:00,
2013-01-23 15:33:00,33.0,11.0,30.11,West,270,15.0,15.0,39,0.00,,,0.00,,2013-01-23 21:33:00,
2013-01-23 15:42:00,33.0,11.0,30.11,West,270,15.0,15.0,39,0.00,,,0.00,,2013-01-23 21:42:00,
2013-01-23 15:52:00,33.0,11.0,30.11,West,270,15.0,15.0,39,0.00,,,0.00,,2013-01-23 21:52:00,
2013-01-23 16:02:00,33.0,11.0,30.11,West,270,15.0,15.0,39,0.00,,,0.00,,2013-01-23 22:02:00,
2013-01-23 16:12:00,33.0,11.0,30.11,West,270,15.0,15.0,39,0.00,,,0.00,,2013-01-23 22:12:00,
2013-01-23 16:23:00,33.0,11.0,30.11,West,270,15.0,15.0,39,0.00,,,0.00,,2013-01-23 22:23:00,
2013-01-23 16:33:00,33.0,13.0,30.12,West,280,15.0,26.0,44,0.00,,,0.00,,2013-01-23 22:33:00,
2013-01-23 16:42:00,33.0,13.0,30.12,West,280,15.0,26.0,44,0.00,,,0.00,,2013-01-23 22:42:00,
2013-01-23 16:52:00,33.0,13.0,30.12,West,280,15.0,26.0,44,0.00,,,0.00,,2013-01-23 22:52:00,
2013-01-23 17:03:00,33.0,13.0,30.12,West,280,15.0,26.0,44,0.00,,,0.00,,2013-01-23 23:03:00,
2013-01-23 17:12:00,33.0,13.0,30.12,West,280,15.0,26.0,44,0.00,,,0.00,,2013-01-23 23:12:00,
2013-01-23 17:22:00,33.0,13.0,30.12,West,280,15.0,26.0,44,0.00,,,0.00,,2013-01-23 23:22:00,
2013-01-23 17:33:00,31.0,15.0,30.14,WNW,290,8.0,20.0,51,0.00,,,0.00,,2013-01-23 23:33:00,
2013-01-23 17:42:00,31.0,15.0,30.14,WNW,290,8.0,20.0,51,0.00,,,0.00,,2013-01-23 23:42:00,
2013-01-23 17:52:00,31.0,15.0,30.14,WNW,290,8.0,20.0,51,0.00,,,0.00,,2013-01-23 23:52:00,
2013-01-23 18:03:00,31.0,15.0,30.14,WNW,290,8.0,20.0,51,0.00,,,0.00,,2013-01-24 00:03:00,
2013-01-23 18:12:00,31.0,15.0,30.14,WNW,290,8.0,20.0,51,0.00,,,0.00,,2013-01-24 00:12:00,
2013-01-23 18:22:00,31.0,15.0,30.14,WNW,290,8.0,20.0,51,0.00,,,0.00,,2013-01-24 00:22:00,
2013-01-23 18:32:00,28.0,15.0,30.16,NW,310,10.0,10.0,57,0.00,,,0.00,,2013-01-24 00:32:00,
2013-01-23 18:42:00,28.0,15.0,30.16,NW,310,10.0,10.0,57,0.00,,,0.00,,2013-01-24 00:42:00,
2013-01-23 18:52:00,28.0,15.0,30.16,NW,310,10.0,10.0,57,0.00,,,0.00,,2013-01-24 00:52:00,
2013-01-23 19:03:00,28.0,15.0,30.16,NW,310,10.0,10.0,57,0.00,,,0.00,,2013-01-24 01:03:00,
2013-01-23 19:12:00,28.0,15.0,30.16,NW,310,10.0,10.0,57,0.00,,,0.00,,2013-01-24 01:12:00,
2013-01-23 19:20:00,26.0,14.0,30.19,NW,310,9.0,9.0,59,0.00,,,0.00,,2013-01-24 01:20:00,
2013-01-23 19:22:00,28.0,15.0,30.16,NW,310,10.0,10.0,57,0.00,,,0.00,,2013-01-24 01:22:00,
2013-01-23 19:33:00,26.0,14.0,30.19,NW,310,9.0,9.0,59,0.00,,,0.00,,2013-01-24 01:33:00,
2013-01-23 19:42:00,26.0,14.0,30.19,NW,310,9.0,9.0,59,0.00,,,0.00,,2013-01-24 01:42:00,
2013-01-23 19:52:00,26.0,14.0,30.19,NW,310,9.0,9.0,59,0.00,,,0.00,,2013-01-24 01:52:00,
2013-01-23 20:02:00,26.0,14.0,30.19,NW,310,9.0,9.0,59,0.00,,,0.00,,2013-01-24 02:02:00,
2013-01-23 20:12:00,26.0,14.0,30.19,NW,310,9.0,9.0,59,0.00,,,0.00,,2013-01-24 02:12:00,
2013-01-23 20:33:00,25.0,13.0,30.21,NW,320,9.0,9.0,59,0.00,,,0.00,,2013-01-24 02:33:00,
2013-01-23 20:43:00,25.0,13.0,30.21,NW,320,9.0,9.0,59,0.00,,,0.00,,2013-01-24 02:43:00,
2013-01-23 20:52:00,25.0,13.0,30.21,NW,320,9.0,9.0,59,0.00,,,0.00,,2013-01-24 02:52:00,
2013-01-23 21:02:00,25.0,13.0,30.21,NW,320,9.0,9.0,59,0.00,,,0.00,,2013-01-24 03:02:00,
2013-01-23 21:12:00,25.0,13.0,30.21,NW,320,9.0,9.0,59,0.00,,,0.00,,2013-01-24 03:12:00,
2013-01-23 21:22:00,25.0,13.0,30.21,NW,320,9.0,9.0,59,0.00,,,0.00,,2013-01-24 03:22:00,
2013-01-23 21:33:00,23.0,9.0,30.24,NNW,330,12.0,25.0,54,0.00,,,0.00,,2013-01-24 03:33:00,
2013-01-23 21:43:00,23.0,9.0,30.24,NNW,330,12.0,25.0,54,0.00,,,0.00,,2013-01-24 03:43:00,
2013-01-23 21:52:00,23.0,9.0,30.24,NNW,330,12.0,25.0,54,0.00,,,0.00,,2013-01-24 03:52:00,
2013-01-23 22:02:00,23.0,9.0,30.24,NNW,330,12.0,25.0,54,0.00,,,0.00,,2013-01-24 04:02:00,
2013-01-23 22:12:00,23.0,9.0,30.24,NNW,330,12.0,25.0,54,0.00,,,0.00,,2013-01-24 04:12:00,
2013-01-23 22:22:00,23.0,9.0,30.24,NNW,330,12.0,25.0,54,0.00,,,0.00,,2013-01-24 04:22:00,
2013-01-23 22:32:00,20.0,7.0,30.28,NNW,340,14.0,24.0,56,0.00,,,0.00,,2013-01-24 04:32:00,
2013-01-23 22:42:00,20.0,7.0,30.28,NNW,340,14.0,24.0,56,0.00,,,0.00,,2013-01-24 04:42:00,
2013-01-23 22:52:00,20.0,7.0,30.28,NNW,340,14.0,24.0,56,0.00,,,0.00,,2013-01-24 04:52:00,
2013-01-23 23:03:00,20.0,7.0,30.28,NNW,340,14.0,24.0,56,0.00,,,0.00,,2013-01-24 05:03:00,
2013-01-23 23:12:00,20.0,7.0,30.28,NNW,340,14.0,24.0,56,0.00,,,0.00,,2013-01-24 05:12:00,
2013-01-23 23:22:00,20.0,7.0,30.28,NNW,340,14.0,24.0,56,0.00,,,0.00,,2013-01-24 05:22:00,
2013-01-23 23:33:00,17.0,5.0,30.33,NNW,330,8.0,24.0,58,0.00,,,0.00,,2013-01-24 05:33:00,
2013-01-23 23:42:00,17.0,5.0,30.33,NNW,330,8.0,24.0,58,0.00,,,0.00,,2013-01-24 05:42:00,
2013-01-23 23:52:00,17.0,5.0,30.33,NNW,330,8.0,24.0,58,0.00,,,0.00,,2013-01-24 05:52:00,